KYKM/YKM METAR and TAF weather

Enter ICAO airport designator
Station Type Date Time Source
KYKM METAR 2020/10/20 17:53 UTC NOAA

KYKM 201753Z 00000KT 10SM CLR 12/03 A3015 RMK AO2 SLP212 T01220028 10122 20061 57004


Station Type Date Time Source
KYKM Decoded METAR 2020/10/20 17:53 UTC NOAA

YAKIMA AIR TERMINAL, WA, United States (KYKM) 46-34N 120-32W 324M
Oct 20, 2020 - 01:53 PM EDT / 2020.10.20 1753 UTC
Wind: Calm:0
Visibility: 10 mile(s):0
Sky conditions: clear
Temperature: 54.0 F (12.2 C)
Dew Point: 37.0 F (2.8 C)
Relative Humidity: 52%
Pressure (altimeter): 30.15 in. Hg (1020 hPa)
Pressure tendency: 0.01 inches (0.4 hPa) lower than three hours ago
ob: KYKM 201753Z 00000KT 10SM CLR 12/03 A3015 RMK AO2 SLP212 T01220028 10122 20061 57004
cycle: 18

Station Type Date Time Source
KYKM TAF 2020/10/20 18:27 UTC NOAA

TAF KYKM 201724Z 2018/2118 VRB04KT P6SM SCT150 BKN200
FM202300 32007KT P6SM FEW060 SCT120 BKN200
FM211500 30010KT P6SM BKN060 BKN100

Example: see airport list